Pine Galaxy — C6TT5 — position and weather

sailwx.info

Track history (hours):
 
Tides and Currents Weather Stations Pressure Air Temp Water Temp Dewpoint Dewpoint Depression Visibility Wind Speed Wind Dir Waves Ship Positions

Pine Galaxy

Last reported at 2015-Jan-28 02:24 UTC. Time now 2015-Feb-01 18:15 UTC.
Position N 08°32' E 122°29'.

Length 147 m; draft 9.5 m.

Type: Tanker. MMSI: 311772000.

Date/timePositionNaut miles runAvg speedWind from/ knotsBaromVisibWave heightAir tempDewpointWater temp
2015-Jan-28 02:24N 08°32' E 122°29'1214.2
2015-Jan-28 01:33N 08°38' E 122°39'1515.0
2015-Jan-28 00:32N 08°46' E 122°52'1615.7
2015-Jan-27 23:33N 08°53' E 123°06'1515.4
2015-Jan-27 22:34N 09°01' E 123°19'1515.0
2015-Jan-27 21:33N 09°15' E 123°24'1414.4
2015-Jan-27 20:33N 09°28' E 123°30'1413.9
2015-Jan-27 19:33N 09°41' E 123°35'  
2015-Jan-21 15:11N 22°16' E 114°06'1 1.0
2015-Jan-21 14:19N 22°17' E 114°06'0 0.0
2015-Jan-21 13:32N 22°17' E 114°06'0 0.0
2015-Jan-21 12:33N 22°17' E 114°06'0 0.0
2015-Jan-21 11:34N 22°17' E 114°06'0 0.0
2015-Jan-21 10:32N 22°17' E 114°06'0 0.0
2015-Jan-21 09:33N 22°17' E 114°06'0 0.1
2015-Jan-21 08:33N 22°17' E 114°06'0 0.0
2015-Jan-21 07:33N 22°17' E 114°06'0 0.0
2015-Jan-21 06:33N 22°17' E 114°06'0 0.1
2015-Jan-21 05:33N 22°17' E 114°06'0 0.2
2015-Jan-21 04:33N 22°17' E 114°06'11 8.9
2015-Jan-21 03:16N 22°09' E 114°14'1513.3
2015-Jan-21 02:07N 22°08' E 114°31'12213.8
2015-Jan-20 17:17N 22°18' E 116°42'61812.8
2015-Jan-18 17:10N 30°51' E 123°09'2715.8
2015-Jan-18 15:26N 30°58' E 122°38'1314.9
2015-Jan-18 14:33N 31°01' E 122°23'1211.6
2015-Jan-18 13:33N 31°03' E 122°10'1111.1
2015-Jan-18 12:33N 31°06' E 121°57'1212.1
2015-Jan-18 11:33N 31°14' E 121°47'1212.0
2015-Jan-18 10:33N 31°22' E 121°36'1010.3
2015-Jan-18 09:33N 31°29' E 121°27'1212.0
2015-Jan-18 08:34N 31°37' E 121°16'1514.6
2015-Jan-18 07:34N 31°46' E 121°03'1211.9
2015-Jan-18 06:33N 31°54' E 120°53'1110.6
2015-Jan-18 05:34N 32°00' E 120°43'1211.8
2015-Jan-18 04:33N 32°02' E 120°29'4 4.1
2015-Jan-18 03:33N 31°58' E 120°27'  
Track history (hours):
 
Tides and Currents Weather Stations Pressure Air Temp Water Temp Dewpoint Dewpoint Depression Visibility Wind Speed Wind Dir Waves Ship Positions

Pine Galaxy

Last reported at 2015-Jan-28 02:24 UTC. Time now 2015-Feb-01 18:15 UTC.
Position N 08°32' E 122°29'.

Length 147 m; draft 9.5 m.

Type: Tanker. MMSI: 311772000.

Date/timePositionNaut miles runAvg speedWind from/ knotsBaromVisibWave heightAir tempDewpointWater temp
2015-Jan-28 02:24N 08°32' E 122°29'1214.2
2015-Jan-28 01:33N 08°38' E 122°39'1515.0
2015-Jan-28 00:32N 08°46' E 122°52'1615.7
2015-Jan-27 23:33N 08°53' E 123°06'1515.4
2015-Jan-27 22:34N 09°01' E 123°19'1515.0
2015-Jan-27 21:33N 09°15' E 123°24'1414.4
2015-Jan-27 20:33N 09°28' E 123°30'1413.9
2015-Jan-27 19:33N 09°41' E 123°35'  
2015-Jan-21 15:11N 22°16' E 114°06'1 1.0
2015-Jan-21 14:19N 22°17' E 114°06'0 0.0
2015-Jan-21 13:32N 22°17' E 114°06'0 0.0
2015-Jan-21 12:33N 22°17' E 114°06'0 0.0
2015-Jan-21 11:34N 22°17' E 114°06'0 0.0
2015-Jan-21 10:32N 22°17' E 114°06'0 0.0
2015-Jan-21 09:33N 22°17' E 114°06'0 0.1
2015-Jan-21 08:33N 22°17' E 114°06'0 0.0
2015-Jan-21 07:33N 22°17' E 114°06'0 0.0
2015-Jan-21 06:33N 22°17' E 114°06'0 0.1
2015-Jan-21 05:33N 22°17' E 114°06'0 0.2
2015-Jan-21 04:33N 22°17' E 114°06'11 8.9
2015-Jan-21 03:16N 22°09' E 114°14'1513.3
2015-Jan-21 02:07N 22°08' E 114°31'12213.8
2015-Jan-20 17:17N 22°18' E 116°42'61812.8
2015-Jan-18 17:10N 30°51' E 123°09'2715.8
2015-Jan-18 15:26N 30°58' E 122°38'1314.9
2015-Jan-18 14:33N 31°01' E 122°23'1211.6
2015-Jan-18 13:33N 31°03' E 122°10'1111.1
2015-Jan-18 12:33N 31°06' E 121°57'1212.1
2015-Jan-18 11:33N 31°14' E 121°47'1212.0
2015-Jan-18 10:33N 31°22' E 121°36'1010.3
2015-Jan-18 09:33N 31°29' E 121°27'1212.0
2015-Jan-18 08:34N 31°37' E 121°16'1514.6
2015-Jan-18 07:34N 31°46' E 121°03'1211.9
2015-Jan-18 06:33N 31°54' E 120°53'1110.6
2015-Jan-18 05:34N 32°00' E 120°43'1211.8
2015-Jan-18 04:33N 32°02' E 120°29'4 4.1
2015-Jan-18 03:33N 31°58' E 120°27'  

Dump ship's entire track history